sensor_id;sensor_type;location;lat;lon;timestamp;P1;durP1;ratioP1;P2;durP2;ratioP2
18867;SDS011;9563;49.240;9.088;2023-05-07T05:01:34;3.83;;;2.58;;
18867;SDS011;9563;49.240;9.088;2023-05-07T05:04:01;3.75;;;2.20;;
18867;SDS011;9563;49.240;9.088;2023-05-07T05:06:28;5.15;;;2.50;;
18867;SDS011;9563;49.240;9.088;2023-05-07T05:08:55;4.30;;;2.40;;
18867;SDS011;9563;49.240;9.088;2023-05-07T05:11:22;5.93;;;2.10;;
18867;SDS011;9563;49.240;9.088;2023-05-07T05:13:49;5.88;;;2.60;;
18867;SDS011;9563;49.240;9.088;2023-05-07T05:16:16;3.88;;;2.67;;
18867;SDS011;9563;49.240;9.088;2023-05-07T05:18:44;4.60;;;2.40;;
18867;SDS011;9563;49.240;9.088;2023-05-07T05:21:11;3.97;;;2.53;;
18867;SDS011;9563;49.240;9.088;2023-05-07T05:23:38;2.65;;;2.20;;
18867;SDS011;9563;49.240;9.088;2023-05-07T05:26:05;4.30;;;2.80;;
18867;SDS011;9563;49.240;9.088;2023-05-07T05:28:32;5.18;;;3.20;;
18867;SDS011;9563;49.240;9.088;2023-05-07T05:30:58;5.00;;;3.20;;
18867;SDS011;9563;49.240;9.088;2023-05-07T05:33:25;3.65;;;2.80;;
18867;SDS011;9563;49.240;9.088;2023-05-07T05:35:54;5.25;;;2.65;;
18867;SDS011;9563;49.240;9.088;2023-05-07T05:38:21;5.22;;;3.30;;
18867;SDS011;9563;49.240;9.088;2023-05-07T05:40:48;4.38;;;3.30;;
18867;SDS011;9563;49.240;9.088;2023-05-07T05:43:15;7.57;;;3.35;;
18867;SDS011;9563;49.240;9.088;2023-05-07T05:45:42;4.03;;;3.20;;
18867;SDS011;9563;49.240;9.088;2023-05-07T05:48:08;6.80;;;2.92;;
18867;SDS011;9563;49.240;9.088;2023-05-07T05:50:35;5.32;;;3.45;;
18867;SDS011;9563;49.240;9.088;2023-05-07T05:53:04;5.20;;;2.80;;
18867;SDS011;9563;49.240;9.088;2023-05-07T05:55:30;6.65;;;3.42;;
18867;SDS011;9563;49.240;9.088;2023-05-07T05:57:58;4.68;;;2.83;;
18867;SDS011;9563;49.240;9.088;2023-05-07T06:00:25;3.92;;;2.67;;
18867;SDS011;9563;49.240;9.088;2023-05-07T06:02:52;4.53;;;3.33;;
18867;SDS011;9563;49.240;9.088;2023-05-07T06:05:19;3.72;;;2.70;;
18867;SDS011;9563;49.240;9.088;2023-05-07T06:07:46;9.02;;;2.90;;
18867;SDS011;9563;49.240;9.088;2023-05-07T06:10:14;4.15;;;2.80;;
18867;SDS011;9563;49.240;9.088;2023-05-07T06:12:41;4.47;;;2.70;;
18867;SDS011;9563;49.240;9.088;2023-05-07T06:15:08;7.63;;;2.97;;
18867;SDS011;9563;49.240;9.088;2023-05-07T06:17:35;5.82;;;3.08;;
18867;SDS011;9563;49.240;9.088;2023-05-07T06:20:02;4.25;;;2.90;;
18867;SDS011;9563;49.240;9.088;2023-05-07T06:22:29;5.75;;;3.13;;
18867;SDS011;9563;49.240;9.088;2023-05-07T06:24:56;3.30;;;2.78;;
18867;SDS011;9563;49.240;9.088;2023-05-07T06:27:24;4.95;;;3.20;;
18867;SDS011;9563;49.240;9.088;2023-05-07T06:29:53;5.30;;;3.22;;
18867;SDS011;9563;49.240;9.088;2023-05-07T06:32:19;5.05;;;3.22;;
18867;SDS011;9563;49.240;9.088;2023-05-07T06:34:46;4.28;;;3.28;;
18867;SDS011;9563;49.240;9.088;2023-05-07T06:37:13;7.75;;;2.88;;
18867;SDS011;9563;49.240;9.088;2023-05-07T06:39:40;3.92;;;2.72;;
18867;SDS011;9563;49.240;9.088;2023-05-07T06:42:07;6.93;;;2.75;;
18867;SDS011;9563;49.240;9.088;2023-05-07T06:44:35;5.13;;;2.97;;
18867;SDS011;9563;49.240;9.088;2023-05-07T06:47:02;7.13;;;3.00;;
18867;SDS011;9563;49.240;9.088;2023-05-07T06:49:30;4.72;;;3.30;;
18867;SDS011;9563;49.240;9.088;2023-05-07T06:51:57;4.63;;;2.67;;
18867;SDS011;9563;49.240;9.088;2023-05-07T06:54:24;3.17;;;2.60;;
18867;SDS011;9563;49.240;9.088;2023-05-07T06:56:51;5.03;;;2.30;;
18867;SDS011;9563;49.240;9.088;2023-05-07T06:59:18;4.95;;;2.95;;
18867;SDS011;9563;49.240;9.088;2023-05-07T07:01:46;4.70;;;3.00;;
18867;SDS011;9563;49.240;9.088;2023-05-07T07:04:13;4.13;;;3.00;;
18867;SDS011;9563;49.240;9.088;2023-05-07T07:06:40;4.22;;;2.90;;
18867;SDS011;9563;49.240;9.088;2023-05-07T07:09:07;4.50;;;3.00;;
18867;SDS011;9563;49.240;9.088;2023-05-07T07:11:34;3.05;;;2.50;;
18867;SDS011;9563;49.240;9.088;2023-05-07T07:14:01;2.97;;;2.67;;
18867;SDS011;9563;49.240;9.088;2023-05-07T07:16:30;7.32;;;2.88;;
18867;SDS011;9563;49.240;9.088;2023-05-07T07:18:58;4.70;;;2.60;;
18867;SDS011;9563;49.240;9.088;2023-05-07T07:21:25;4.38;;;3.15;;
18867;SDS011;9563;49.240;9.088;2023-05-07T07:23:52;5.07;;;2.97;;
18867;SDS011;9563;49.240;9.088;2023-05-07T07:26:18;3.42;;;2.78;;
18867;SDS011;9563;49.240;9.088;2023-05-07T07:28:45;6.18;;;3.08;;
18867;SDS011;9563;49.240;9.088;2023-05-07T07:31:12;3.25;;;2.42;;
18867;SDS011;9563;49.240;9.088;2023-05-07T07:33:40;3.00;;;2.60;;
18867;SDS011;9563;49.240;9.088;2023-05-07T07:36:09;3.33;;;2.40;;
18867;SDS011;9563;49.240;9.088;2023-05-07T07:38:36;6.70;;;3.00;;
18867;SDS011;9563;49.240;9.088;2023-05-07T07:41:03;4.38;;;2.35;;
18867;SDS011;9563;49.240;9.088;2023-05-07T07:43:30;3.17;;;2.42;;
18867;SDS011;9563;49.240;9.088;2023-05-07T07:45:57;4.90;;;2.60;;
18867;SDS011;9563;49.240;9.088;2023-05-07T07:48:23;3.75;;;2.08;;
18867;SDS011;9563;49.240;9.088;2023-05-07T07:50:50;4.45;;;2.50;;
18867;SDS011;9563;49.240;9.088;2023-05-07T07:53:18;4.88;;;2.58;;
18867;SDS011;9563;49.240;9.088;2023-05-07T07:55:45;5.43;;;2.25;;
18867;SDS011;9563;49.240;9.088;2023-05-07T07:58:12;4.13;;;2.58;;
18867;SDS011;9563;49.240;9.088;2023-05-07T08:00:39;3.75;;;2.75;;
18867;SDS011;9563;49.240;9.088;2023-05-07T08:03:08;4.75;;;2.25;;
18867;SDS011;9563;49.240;9.088;2023-05-07T08:05:35;5.68;;;2.83;;
18867;SDS011;9563;49.240;9.088;2023-05-07T08:08:03;4.85;;;1.85;;
18867;SDS011;9563;49.240;9.088;2023-05-07T08:10:32;3.30;;;2.15;;
18867;SDS011;9563;49.240;9.088;2023-05-07T08:13:03;4.75;;;2.65;;
18867;SDS011;9563;49.240;9.088;2023-05-07T08:15:30;2.75;;;2.10;;
18867;SDS011;9563;49.240;9.088;2023-05-07T08:17:57;3.75;;;2.55;;
18867;SDS011;9563;49.240;9.088;2023-05-07T08:20:25;4.72;;;2.53;;
18867;SDS011;9563;49.240;9.088;2023-05-07T08:22:52;4.90;;;2.53;;
18867;SDS011;9563;49.240;9.088;2023-05-07T08:25:18;6.65;;;1.80;;
18867;SDS011;9563;49.240;9.088;2023-05-07T08:27:47;3.67;;;2.00;;
18867;SDS011;9563;49.240;9.088;2023-05-07T08:30:14;7.10;;;2.53;;
18867;SDS011;9563;49.240;9.088;2023-05-07T08:32:41;4.03;;;2.65;;
18867;SDS011;9563;49.240;9.088;2023-05-07T08:35:08;6.40;;;2.17;;
18867;SDS011;9563;49.240;9.088;2023-05-07T08:37:36;3.42;;;2.10;;
18867;SDS011;9563;49.240;9.088;2023-05-07T08:40:03;3.80;;;2.55;;
18867;SDS011;9563;49.240;9.088;2023-05-07T08:42:31;2.70;;;2.28;;
18867;SDS011;9563;49.240;9.088;2023-05-07T08:45:03;4.80;;;2.55;;
18867;SDS011;9563;49.240;9.088;2023-05-07T08:47:35;3.05;;;1.90;;
18867;SDS011;9563;49.240;9.088;2023-05-07T08:50:08;2.50;;;2.10;;
18867;SDS011;9563;49.240;9.088;2023-05-07T08:52:36;4.75;;;1.80;;
18867;SDS011;9563;49.240;9.088;2023-05-07T08:55:03;3.47;;;2.00;;
18867;SDS011;9563;49.240;9.088;2023-05-07T08:57:31;6.05;;;1.95;;
18867;SDS011;9563;49.240;9.088;2023-05-07T08:59:58;3.55;;;2.10;;
18867;SDS011;9563;49.240;9.088;2023-05-07T09:02:26;2.47;;;2.13;;
18867;SDS011;9563;49.240;9.088;2023-05-07T09:04:53;3.05;;;2.13;;
18867;SDS011;9563;49.240;9.088;2023-05-07T09:07:20;5.05;;;2.22;;
18867;SDS011;9563;49.240;9.088;2023-05-07T09:09:48;3.25;;;2.42;;
18867;SDS011;9563;49.240;9.088;2023-05-07T09:12:15;4.20;;;2.50;;
18867;SDS011;9563;49.240;9.088;2023-05-07T09:14:44;3.40;;;2.22;;
18867;SDS011;9563;49.240;9.088;2023-05-07T09:17:12;4.75;;;2.30;;
18867;SDS011;9563;49.240;9.088;2023-05-07T09:19:40;2.80;;;2.33;;
18867;SDS011;9563;49.240;9.088;2023-05-07T09:22:07;3.53;;;2.35;;
18867;SDS011;9563;49.240;9.088;2023-05-07T09:24:34;4.43;;;2.47;;
18867;SDS011;9563;49.240;9.088;2023-05-07T09:27:02;4.10;;;2.30;;
18867;SDS011;9563;49.240;9.088;2023-05-07T09:29:30;4.13;;;2.00;;
18867;SDS011;9563;49.240;9.088;2023-05-07T09:32:00;3.45;;;2.13;;
18867;SDS011;9563;49.240;9.088;2023-05-07T09:34:27;2.90;;;1.65;;
18867;SDS011;9563;49.240;9.088;2023-05-07T09:36:56;3.00;;;2.20;;
18867;SDS011;9563;49.240;9.088;2023-05-07T09:39:25;2.05;;;1.67;;
18867;SDS011;9563;49.240;9.088;2023-05-07T09:41:52;11.82;;;2.00;;
18867;SDS011;9563;49.240;9.088;2023-05-07T09:44:20;3.85;;;1.92;;
18867;SDS011;9563;49.240;9.088;2023-05-07T09:46:49;2.92;;;1.90;;
18867;SDS011;9563;49.240;9.088;2023-05-07T09:49:20;3.55;;;2.20;;
18867;SDS011;9563;49.240;9.088;2023-05-07T09:51:49;3.75;;;2.00;;
18867;SDS011;9563;49.240;9.088;2023-05-07T09:54:18;2.53;;;2.08;;
18867;SDS011;9563;49.240;9.088;2023-05-07T09:56:46;4.10;;;2.13;;
18867;SDS011;9563;49.240;9.088;2023-05-07T09:59:15;4.43;;;2.15;;
18867;SDS011;9563;49.240;9.088;2023-05-07T10:01:43;3.58;;;1.70;;
18867;SDS011;9563;49.240;9.088;2023-05-07T10:04:11;5.22;;;2.08;;
18867;SDS011;9563;49.240;9.088;2023-05-07T10:06:38;3.00;;;1.95;;
18867;SDS011;9563;49.240;9.088;2023-05-07T10:09:06;1.60;;;1.50;;
18867;SDS011;9563;49.240;9.088;2023-05-07T10:11:36;5.07;;;2.10;;
18867;SDS011;9563;49.240;9.088;2023-05-07T10:14:04;6.60;;;1.98;;
18867;SDS011;9563;49.240;9.088;2023-05-07T10:16:32;1.90;;;1.48;;
18867;SDS011;9563;49.240;9.088;2023-05-07T10:19:01;2.28;;;1.65;;
18867;SDS011;9563;49.240;9.088;2023-05-07T10:21:29;3.28;;;1.90;;
18867;SDS011;9563;49.240;9.088;2023-05-07T10:23:57;2.88;;;1.90;;
18867;SDS011;9563;49.240;9.088;2023-05-07T10:26:27;2.63;;;1.70;;
18867;SDS011;9563;49.240;9.088;2023-05-07T10:28:57;4.43;;;1.80;;
18867;SDS011;9563;49.240;9.088;2023-05-07T10:31:34;3.92;;;2.13;;
18867;SDS011;9563;49.240;9.088;2023-05-07T10:34:11;2.78;;;1.90;;
18867;SDS011;9563;49.240;9.088;2023-05-07T10:36:40;3.05;;;1.88;;
18867;SDS011;9563;49.240;9.088;2023-05-07T10:39:08;2.08;;;1.75;;
18867;SDS011;9563;49.240;9.088;2023-05-07T10:41:35;2.25;;;1.67;;
18867;SDS011;9563;49.240;9.088;2023-05-07T10:44:04;4.07;;;1.80;;
18867;SDS011;9563;49.240;9.088;2023-05-07T10:46:31;1.85;;;1.20;;
18867;SDS011;9563;49.240;9.088;2023-05-07T10:49:06;4.03;;;1.67;;
18867;SDS011;9563;49.240;9.088;2023-05-07T10:51:40;5.05;;;1.23;;
18867;SDS011;9563;49.240;9.088;2023-05-07T10:54:21;4.38;;;1.33;;
18867;SDS011;9563;49.240;9.088;2023-05-07T10:56:49;4.70;;;1.65;;
18867;SDS011;9563;49.240;9.088;2023-05-07T11:02:07;10.40;;;1.80;;
18867;SDS011;9563;49.240;9.088;2023-05-07T11:04:36;3.75;;;1.73;;
18867;SDS011;9563;49.240;9.088;2023-05-07T11:09:58;4.28;;;1.70;;
18867;SDS011;9563;49.240;9.088;2023-05-07T11:18:08;2.88;;;1.65;;
18867;SDS011;9563;49.240;9.088;2023-05-07T11:26:21;5.35;;;1.70;;
18867;SDS011;9563;49.240;9.088;2023-05-07T11:28:48;3.58;;;1.58;;
18867;SDS011;9563;49.240;9.088;2023-05-07T11:31:20;3.90;;;1.70;;
18867;SDS011;9563;49.240;9.088;2023-05-07T11:33:48;2.55;;;1.50;;
18867;SDS011;9563;49.240;9.088;2023-05-07T11:36:16;8.98;;;1.90;;
18867;SDS011;9563;49.240;9.088;2023-05-07T11:38:44;1.65;;;1.38;;
18867;SDS011;9563;49.240;9.088;2023-05-07T11:41:11;1.73;;;1.30;;
18867;SDS011;9563;49.240;9.088;2023-05-07T11:43:40;1.40;;;1.30;;
18867;SDS011;9563;49.240;9.088;2023-05-07T11:46:22;2.63;;;1.77;;
18867;SDS011;9563;49.240;9.088;2023-05-07T11:48:49;2.55;;;1.63;;
18867;SDS011;9563;49.240;9.088;2023-05-07T11:51:19;2.88;;;1.50;;
18867;SDS011;9563;49.240;9.088;2023-05-07T11:53:47;3.13;;;1.20;;
18867;SDS011;9563;49.240;9.088;2023-05-07T11:56:15;1.90;;;1.38;;
18867;SDS011;9563;49.240;9.088;2023-05-07T11:58:44;2.83;;;1.30;;
18867;SDS011;9563;49.240;9.088;2023-05-07T12:01:12;2.05;;;1.50;;
18867;SDS011;9563;49.240;9.088;2023-05-07T12:03:42;3.00;;;1.50;;
18867;SDS011;9563;49.240;9.088;2023-05-07T12:06:10;2.15;;;1.40;;
18867;SDS011;9563;49.240;9.088;2023-05-07T12:08:39;1.30;;;1.20;;
18867;SDS011;9563;49.240;9.088;2023-05-07T12:11:07;1.50;;;1.20;;
18867;SDS011;9563;49.240;9.088;2023-05-07T12:13:36;3.50;;;1.40;;
18867;SDS011;9563;49.240;9.088;2023-05-07T12:16:04;1.90;;;1.30;;
18867;SDS011;9563;49.240;9.088;2023-05-07T12:18:33;1.85;;;1.02;;
18867;SDS011;9563;49.240;9.088;2023-05-07T12:21:02;2.05;;;1.25;;
18867;SDS011;9563;49.240;9.088;2023-05-07T12:23:31;2.85;;;1.40;;
18867;SDS011;9563;49.240;9.088;2023-05-07T12:25:58;5.53;;;1.00;;
18867;SDS011;9563;49.240;9.088;2023-05-07T12:28:25;2.08;;;1.20;;
18867;SDS011;9563;49.240;9.088;2023-05-07T12:30:52;1.27;;;1.08;;
18867;SDS011;9563;49.240;9.088;2023-05-07T12:33:23;1.98;;;1.05;;
18867;SDS011;9563;49.240;9.088;2023-05-07T12:35:52;1.40;;;1.17;;
18867;SDS011;9563;49.240;9.088;2023-05-07T12:38:22;2.65;;;1.42;;
18867;SDS011;9563;49.240;9.088;2023-05-07T12:40:50;2.42;;;1.13;;
18867;SDS011;9563;49.240;9.088;2023-05-07T12:43:19;3.53;;;1.15;;
18867;SDS011;9563;49.240;9.088;2023-05-07T12:45:48;2.63;;;1.23;;
18867;SDS011;9563;49.240;9.088;2023-05-07T12:48:16;2.13;;;0.90;;
18867;SDS011;9563;49.240;9.088;2023-05-07T12:50:43;1.95;;;1.27;;
18867;SDS011;9563;49.240;9.088;2023-05-07T12:53:11;2.80;;;1.00;;
18867;SDS011;9563;49.240;9.088;2023-05-07T12:55:43;2.75;;;1.00;;
18867;SDS011;9563;49.240;9.088;2023-05-07T12:58:15;1.85;;;1.20;;
18867;SDS011;9563;49.240;9.088;2023-05-07T13:00:43;2.00;;;1.10;;
18867;SDS011;9563;49.240;9.088;2023-05-07T13:03:10;5.05;;;1.42;;
18867;SDS011;9563;49.240;9.088;2023-05-07T13:05:37;2.53;;;1.33;;
18867;SDS011;9563;49.240;9.088;2023-05-07T13:08:04;1.60;;;1.13;;
18867;SDS011;9563;49.240;9.088;2023-05-07T13:10:34;3.53;;;1.40;;
18867;SDS011;9563;49.240;9.088;2023-05-07T13:13:02;1.23;;;1.10;;
18867;SDS011;9563;49.240;9.088;2023-05-07T13:15:29;4.55;;;0.90;;
18867;SDS011;9563;49.240;9.088;2023-05-07T13:17:56;1.55;;;1.00;;
18867;SDS011;9563;49.240;9.088;2023-05-07T13:20:23;1.45;;;0.95;;
18867;SDS011;9563;49.240;9.088;2023-05-07T13:22:50;1.42;;;1.10;;
18867;SDS011;9563;49.240;9.088;2023-05-07T13:25:17;6.18;;;1.35;;
18867;SDS011;9563;49.240;9.088;2023-05-07T13:27:44;3.10;;;1.08;;
18867;SDS011;9563;49.240;9.088;2023-05-07T13:30:13;1.65;;;1.10;;
18867;SDS011;9563;49.240;9.088;2023-05-07T13:32:40;5.00;;;1.40;;
18867;SDS011;9563;49.240;9.088;2023-05-07T13:35:07;4.18;;;1.30;;
18867;SDS011;9563;49.240;9.088;2023-05-07T13:37:34;2.28;;;1.25;;
18867;SDS011;9563;49.240;9.088;2023-05-07T13:40:01;4.13;;;1.60;;
18867;SDS011;9563;49.240;9.088;2023-05-07T13:42:28;3.65;;;1.30;;
18867;SDS011;9563;49.240;9.088;2023-05-07T13:44:55;4.70;;;1.42;;
18867;SDS011;9563;49.240;9.088;2023-05-07T13:47:24;1.67;;;1.20;;
18867;SDS011;9563;49.240;9.088;2023-05-07T13:49:51;4.07;;;1.20;;
18867;SDS011;9563;49.240;9.088;2023-05-07T13:52:18;3.63;;;1.52;;
18867;SDS011;9563;49.240;9.088;2023-05-07T13:54:45;1.50;;;1.40;;
18867;SDS011;9563;49.240;9.088;2023-05-07T13:57:12;5.13;;;1.40;;
18867;SDS011;9563;49.240;9.088;2023-05-07T13:59:39;1.75;;;1.38;;
18867;SDS011;9563;49.240;9.088;2023-05-07T14:02:06;1.85;;;1.60;;
18867;SDS011;9563;49.240;9.088;2023-05-07T14:04:35;2.20;;;1.40;;
18867;SDS011;9563;49.240;9.088;2023-05-07T14:07:03;2.47;;;1.73;;
18867;SDS011;9563;49.240;9.088;2023-05-07T14:09:30;2.92;;;1.50;;
18867;SDS011;9563;49.240;9.088;2023-05-07T14:11:57;2.65;;;1.33;;
18867;SDS011;9563;49.240;9.088;2023-05-07T14:14:25;3.70;;;1.40;;
18867;SDS011;9563;49.240;9.088;2023-05-07T14:16:52;2.83;;;1.33;;
18867;SDS011;9563;49.240;9.088;2023-05-07T14:19:18;1.98;;;1.45;;
18867;SDS011;9563;49.240;9.088;2023-05-07T14:21:49;2.20;;;1.33;;
18867;SDS011;9563;49.240;9.088;2023-05-07T14:24:16;2.42;;;1.38;;
18867;SDS011;9563;49.240;9.088;2023-05-07T14:26:44;4.50;;;1.83;;
18867;SDS011;9563;49.240;9.088;2023-05-07T14:29:11;4.22;;;1.52;;
18867;SDS011;9563;49.240;9.088;2023-05-07T14:31:38;6.78;;;1.80;;
18867;SDS011;9563;49.240;9.088;2023-05-07T14:34:05;5.70;;;1.40;;
18867;SDS011;9563;49.240;9.088;2023-05-07T14:36:32;4.72;;;1.30;;
18867;SDS011;9563;49.240;9.088;2023-05-07T14:39:00;5.28;;;1.63;;
18867;SDS011;9563;49.240;9.088;2023-05-07T14:41:27;2.90;;;1.75;;
18867;SDS011;9563;49.240;9.088;2023-05-07T14:43:54;5.30;;;1.80;;
18867;SDS011;9563;49.240;9.088;2023-05-07T14:46:21;5.82;;;1.70;;
18867;SDS011;9563;49.240;9.088;2023-05-07T14:48:49;2.72;;;1.90;;
18867;SDS011;9563;49.240;9.088;2023-05-07T14:51:15;6.38;;;2.10;;
18867;SDS011;9563;49.240;9.088;2023-05-07T14:53:42;2.30;;;1.90;;
18867;SDS011;9563;49.240;9.088;2023-05-07T14:56:11;5.00;;;1.70;;
18867;SDS011;9563;49.240;9.088;2023-05-07T14:58:38;5.90;;;1.88;;
18867;SDS011;9563;49.240;9.088;2023-05-07T15:01:06;5.55;;;2.00;;
18867;SDS011;9563;49.240;9.088;2023-05-07T15:03:33;5.53;;;2.10;;
18867;SDS011;9563;49.240;9.088;2023-05-07T15:06:01;6.90;;;2.15;;
18867;SDS011;9563;49.240;9.088;2023-05-07T15:08:28;8.57;;;2.50;;
18867;SDS011;9563;49.240;9.088;2023-05-07T15:10:55;9.23;;;2.45;;
18867;SDS011;9563;49.240;9.088;2023-05-07T15:13:23;6.47;;;2.80;;
18867;SDS011;9563;49.240;9.088;2023-05-07T15:15:50;8.45;;;2.60;;
18867;SDS011;9563;49.240;9.088;2023-05-07T15:18:17;5.32;;;2.60;;
18867;SDS011;9563;49.240;9.088;2023-05-07T15:20:44;10.40;;;2.60;;
18867;SDS011;9563;49.240;9.088;2023-05-07T15:23:11;5.82;;;2.22;;
18867;SDS011;9563;49.240;9.088;2023-05-07T15:25:39;6.28;;;2.53;;
18867;SDS011;9563;49.240;9.088;2023-05-07T15:28:06;9.57;;;2.35;;
18867;SDS011;9563;49.240;9.088;2023-05-07T15:30:35;4.50;;;2.05;;
18867;SDS011;9563;49.240;9.088;2023-05-07T15:33:02;5.05;;;2.22;;
18867;SDS011;9563;49.240;9.088;2023-05-07T15:35:29;6.05;;;2.20;;
18867;SDS011;9563;49.240;9.088;2023-05-07T15:37:56;5.57;;;2.13;;
18867;SDS011;9563;49.240;9.088;2023-05-07T15:40:23;5.88;;;2.05;;
18867;SDS011;9563;49.240;9.088;2023-05-07T15:42:50;8.70;;;2.28;;
18867;SDS011;9563;49.240;9.088;2023-05-07T15:45:21;7.45;;;2.78;;
18867;SDS011;9563;49.240;9.088;2023-05-07T15:47:50;6.00;;;2.95;;
18867;SDS011;9563;49.240;9.088;2023-05-07T15:50:17;6.13;;;2.10;;
18867;SDS011;9563;49.240;9.088;2023-05-07T15:52:44;5.65;;;2.03;;
18867;SDS011;9563;49.240;9.088;2023-05-07T15:55:11;5.03;;;1.90;;
18867;SDS011;9563;49.240;9.088;2023-05-07T15:57:39;3.42;;;2.10;;
18867;SDS011;9563;49.240;9.088;2023-05-07T16:00:06;6.05;;;2.00;;
18867;SDS011;9563;49.240;9.088;2023-05-07T16:02:36;7.82;;;2.00;;
18867;SDS011;9563;49.240;9.088;2023-05-07T16:05:06;5.25;;;2.00;;
18867;SDS011;9563;49.240;9.088;2023-05-07T16:07:34;3.20;;;1.70;;
18867;SDS011;9563;49.240;9.088;2023-05-07T16:10:02;5.72;;;2.17;;
18867;SDS011;9563;49.240;9.088;2023-05-07T16:12:29;6.47;;;2.38;;
18867;SDS011;9563;49.240;9.088;2023-05-07T16:14:58;4.70;;;2.25;;
18867;SDS011;9563;49.240;9.088;2023-05-07T16:17:25;4.60;;;2.08;;
18867;SDS011;9563;49.240;9.088;2023-05-07T16:19:52;8.40;;;2.88;;
18867;SDS011;9563;49.240;9.088;2023-05-07T16:22:21;12.60;;;3.90;;
18867;SDS011;9563;49.240;9.088;2023-05-07T16:24:49;7.93;;;2.92;;
18867;SDS011;9563;49.240;9.088;2023-05-07T16:27:16;8.05;;;3.17;;
18867;SDS011;9563;49.240;9.088;2023-05-07T16:29:43;8.43;;;4.00;;
18867;SDS011;9563;49.240;9.088;2023-05-07T16:32:10;5.05;;;2.67;;
18867;SDS011;9563;49.240;9.088;2023-05-07T16:34:37;5.50;;;2.50;;
18867;SDS011;9563;49.240;9.088;2023-05-07T16:37:04;5.55;;;2.53;;
18867;SDS011;9563;49.240;9.088;2023-05-07T16:39:33;12.68;;;2.85;;
18867;SDS011;9563;49.240;9.088;2023-05-07T16:41:59;6.72;;;2.30;;
18867;SDS011;9563;49.240;9.088;2023-05-07T16:44:27;5.55;;;2.03;;
18867;SDS011;9563;49.240;9.088;2023-05-07T16:46:53;4.47;;;1.90;;
18867;SDS011;9563;49.240;9.088;2023-05-07T16:49:20;5.97;;;2.03;;
18867;SDS011;9563;49.240;9.088;2023-05-07T16:51:47;3.83;;;1.73;;
18867;SDS011;9563;49.240;9.088;2023-05-07T16:54:15;7.63;;;2.78;;
18867;SDS011;9563;49.240;9.088;2023-05-07T16:56:43;7.63;;;2.05;;
18867;SDS011;9563;49.240;9.088;2023-05-07T16:59:10;5.55;;;2.20;;
18867;SDS011;9563;49.240;9.088;2023-05-07T17:01:36;6.43;;;2.17;;
18867;SDS011;9563;49.240;9.088;2023-05-07T17:04:03;5.55;;;2.05;;
18867;SDS011;9563;49.240;9.088;2023-05-07T17:06:30;6.70;;;2.10;;
18867;SDS011;9563;49.240;9.088;2023-05-07T17:08:57;4.97;;;2.35;;
18867;SDS011;9563;49.240;9.088;2023-05-07T17:11:24;13.65;;;6.97;;
18867;SDS011;9563;49.240;9.088;2023-05-07T17:13:56;4.22;;;2.78;;
18867;SDS011;9563;49.240;9.088;2023-05-07T17:16:23;5.80;;;2.28;;
18867;SDS011;9563;49.240;9.088;2023-05-07T17:18:50;2.65;;;1.80;;
18867;SDS011;9563;49.240;9.088;2023-05-07T17:21:17;2.80;;;1.98;;
18867;SDS011;9563;49.240;9.088;2023-05-07T17:23:44;4.53;;;2.03;;
18867;SDS011;9563;49.240;9.088;2023-05-07T17:26:11;1.95;;;1.55;;
18867;SDS011;9563;49.240;9.088;2023-05-07T17:28:39;5.05;;;3.05;;
18867;SDS011;9563;49.240;9.088;2023-05-07T17:31:07;4.10;;;2.70;;
18867;SDS011;9563;49.240;9.088;2023-05-07T17:33:34;4.65;;;2.45;;
18867;SDS011;9563;49.240;9.088;2023-05-07T17:36:01;5.93;;;2.45;;
18867;SDS011;9563;49.240;9.088;2023-05-07T17:38:29;3.33;;;2.03;;
18867;SDS011;9563;49.240;9.088;2023-05-07T17:40:56;3.47;;;1.85;;
18867;SDS011;9563;49.240;9.088;2023-05-07T17:43:24;3.60;;;1.80;;
18867;SDS011;9563;49.240;9.088;2023-05-07T17:45:51;3.75;;;2.17;;
18867;SDS011;9563;49.240;9.088;2023-05-07T17:48:19;3.75;;;2.45;;
18867;SDS011;9563;49.240;9.088;2023-05-07T17:50:46;5.70;;;1.90;;
18867;SDS011;9563;49.240;9.088;2023-05-07T17:53:13;2.45;;;1.60;;
18867;SDS011;9563;49.240;9.088;2023-05-07T17:55:40;4.32;;;1.85;;
18867;SDS011;9563;49.240;9.088;2023-05-07T17:58:08;3.03;;;1.67;;
18867;SDS011;9563;49.240;9.088;2023-05-07T18:00:36;2.30;;;1.77;;
18867;SDS011;9563;49.240;9.088;2023-05-07T18:03:03;2.17;;;1.52;;
18867;SDS011;9563;49.240;9.088;2023-05-07T18:05:34;1.83;;;1.58;;
18867;SDS011;9563;49.240;9.088;2023-05-07T18:08:01;3.33;;;1.80;;
18867;SDS011;9563;49.240;9.088;2023-05-07T18:10:28;3.45;;;1.73;;
18867;SDS011;9563;49.240;9.088;2023-05-07T18:12:55;5.07;;;2.05;;
18867;SDS011;9563;49.240;9.088;2023-05-07T18:15:22;2.22;;;1.98;;
18867;SDS011;9563;49.240;9.088;2023-05-07T18:17:49;5.13;;;2.00;;
18867;SDS011;9563;49.240;9.088;2023-05-07T18:20:16;6.65;;;2.42;;
18867;SDS011;9563;49.240;9.088;2023-05-07T18:22:45;2.90;;;2.13;;
18867;SDS011;9563;49.240;9.088;2023-05-07T18:25:12;5.90;;;2.45;;
18867;SDS011;9563;49.240;9.088;2023-05-07T18:27:39;5.13;;;2.10;;
18867;SDS011;9563;49.240;9.088;2023-05-07T18:30:06;3.83;;;2.05;;
18867;SDS011;9563;49.240;9.088;2023-05-07T18:32:34;3.70;;;1.70;;
18867;SDS011;9563;49.240;9.088;2023-05-07T18:35:01;4.25;;;2.10;;
18867;SDS011;9563;49.240;9.088;2023-05-07T18:37:28;4.70;;;2.15;;
18867;SDS011;9563;49.240;9.088;2023-05-07T18:39:56;4.53;;;2.20;;
18867;SDS011;9563;49.240;9.088;2023-05-07T18:42:25;3.20;;;2.30;;
18867;SDS011;9563;49.240;9.088;2023-05-07T18:44:53;5.28;;;2.15;;
18867;SDS011;9563;49.240;9.088;2023-05-07T18:47:20;4.50;;;2.72;;
18867;SDS011;9563;49.240;9.088;2023-05-07T18:49:46;4.22;;;3.25;;
18867;SDS011;9563;49.240;9.088;2023-05-07T18:52:13;2.40;;;2.20;;
18867;SDS011;9563;49.240;9.088;2023-05-07T18:54:41;3.63;;;2.88;;
18867;SDS011;9563;49.240;9.088;2023-05-07T18:57:11;4.00;;;2.85;;
18867;SDS011;9563;49.240;9.088;2023-05-07T18:59:38;3.92;;;2.40;;
18867;SDS011;9563;49.240;9.088;2023-05-07T19:02:04;3.65;;;2.53;;
18867;SDS011;9563;49.240;9.088;2023-05-07T19:04:32;5.75;;;2.35;;
18867;SDS011;9563;49.240;9.088;2023-05-07T19:07:00;4.13;;;2.50;;
18867;SDS011;9563;49.240;9.088;2023-05-07T19:09:27;5.20;;;2.53;;
18867;SDS011;9563;49.240;9.088;2023-05-07T19:11:54;3.20;;;2.10;;
18867;SDS011;9563;49.240;9.088;2023-05-07T19:14:22;4.22;;;2.50;;
18867;SDS011;9563;49.240;9.088;2023-05-07T19:16:49;6.75;;;2.83;;
18867;SDS011;9563;49.240;9.088;2023-05-07T19:19:16;3.22;;;2.30;;
18867;SDS011;9563;49.240;9.088;2023-05-07T19:21:43;6.20;;;3.10;;
18867;SDS011;9563;49.240;9.088;2023-05-07T19:24:10;4.50;;;2.83;;
18867;SDS011;9563;49.240;9.088;2023-05-07T19:26:37;5.75;;;2.83;;
18867;SDS011;9563;49.240;9.088;2023-05-07T19:29:05;4.32;;;2.42;;
18867;SDS011;9563;49.240;9.088;2023-05-07T19:31:33;4.68;;;3.35;;
18867;SDS011;9563;49.240;9.088;2023-05-07T19:34:00;5.00;;;3.00;;
18867;SDS011;9563;49.240;9.088;2023-05-07T19:36:27;4.60;;;3.35;;
18867;SDS011;9563;49.240;9.088;2023-05-07T19:38:54;4.13;;;3.25;;
18867;SDS011;9563;49.240;9.088;2023-05-07T19:41:21;7.38;;;3.35;;
18867;SDS011;9563;49.240;9.088;2023-05-07T19:43:48;4.88;;;3.08;;
18867;SDS011;9563;49.240;9.088;2023-05-07T19:46:15;5.82;;;3.00;;
18867;SDS011;9563;49.240;9.088;2023-05-07T19:48:44;5.93;;;3.60;;
18867;SDS011;9563;49.240;9.088;2023-05-07T19:51:11;3.95;;;3.08;;
18867;SDS011;9563;49.240;9.088;2023-05-07T19:53:38;6.03;;;3.78;;
18867;SDS011;9563;49.240;9.088;2023-05-07T19:56:05;6.80;;;3.63;;
18867;SDS011;9563;49.240;9.088;2023-05-07T19:58:34;5.00;;;3.15;;
18867;SDS011;9563;49.240;9.088;2023-05-07T20:01:01;6.10;;;3.15;;
18867;SDS011;9563;49.240;9.088;2023-05-07T20:03:29;4.72;;;2.88;;
18867;SDS011;9563;49.240;9.088;2023-05-07T20:05:58;4.65;;;3.53;;
18867;SDS011;9563;49.240;9.088;2023-05-07T20:08:26;3.97;;;3.13;;
18867;SDS011;9563;49.240;9.088;2023-05-07T20:10:53;6.68;;;3.33;;
18867;SDS011;9563;49.240;9.088;2023-05-07T20:13:22;3.72;;;2.72;;
18867;SDS011;9563;49.240;9.088;2023-05-07T20:15:50;5.35;;;3.00;;
18867;SDS011;9563;49.240;9.088;2023-05-07T20:18:17;3.95;;;3.30;;
18867;SDS011;9563;49.240;9.088;2023-05-07T20:20:44;5.25;;;3.08;;